Time;durP1;ratioP1;P1;durP2;ratioP2;P2;SDS_P1;SDS_P2;PMS_P1;PMS_P2;Temp;Humidity;BMP_temperature;BMP_pressure;BME280_temperature;BME280_humidity;BME280_pressure;Samples;Min_cycle;Max_cycle;Signal;HPM_P1;HPM_P2
2022/09/22 00:00:16;;;;;;;12.20;11.00;;;9.20;99.90;;;;;;6241736;23;20149;-48
2022/09/22 00:02:42;;;;;;;10.67;9.67;;;9.20;99.90;;;;;;6241052;23;20173;-46
2022/09/22 00:05:07;;;;;;;12.80;11.30;;;9.20;99.90;;;;;;6241873;23;20388;-46
2022/09/22 00:07:33;;;;;;;11.53;10.43;;;9.20;99.90;;;;;;6240962;23;20146;-50
2022/09/22 00:09:58;;;;;;;11.07;10.00;;;9.20;99.90;;;;;;6241892;23;20208;-48
2022/09/22 00:12:24;;;;;;;10.40;9.33;;;9.30;99.90;;;;;;6241509;23;20153;-50
2022/09/22 00:14:50;;;;;;;14.43;9.60;;;9.20;99.90;;;;;;6240811;23;20165;-50
2022/09/22 00:17:16;;;;;;;10.90;9.90;;;9.20;99.90;;;;;;6241553;23;20153;-50
2022/09/22 00:19:42;;;;;;;10.13;9.13;;;9.10;99.90;;;;;;6241319;23;20407;-49
2022/09/22 00:22:07;;;;;;;10.97;9.87;;;9.10;99.90;;;;;;6241156;23;20226;-47
2022/09/22 00:24:33;;;;;;;10.47;9.47;;;9.10;99.90;;;;;;6240644;23;20225;-47
2022/09/22 00:26:59;;;;;;;10.30;9.30;;;9.00;99.90;;;;;;6241573;23;20157;-44
2022/09/22 00:29:27;;;;;;;10.70;9.70;;;9.00;99.90;;;;;;6241487;23;20766;-51
2022/09/22 00:31:53;;;;;;;10.80;9.80;;;9.10;99.90;;;;;;6241423;23;20383;-48
2022/09/22 00:34:22;;;;;;;10.83;9.73;;;9.00;99.90;;;;;;6241374;23;20412;-49
2022/09/22 00:36:48;;;;;;;10.43;9.43;;;8.90;99.90;;;;;;6241527;23;20399;-46
2022/09/22 00:39:15;;;;;;;9.90;8.90;;;8.90;99.90;;;;;;6240816;23;20428;-50
2022/09/22 00:41:43;;;;;;;10.10;9.10;;;8.90;99.90;;;;;;6240976;23;20369;-49
2022/09/22 00:44:31;;;;;;;11.90;10.10;;;8.80;99.90;;;;;;6240827;23;20685;-48
2022/09/22 00:47:18;;;;;;;10.60;9.40;;;8.80;99.90;;;;;;6241343;23;20364;-49
2022/09/22 00:49:44;;;;;;;10.47;9.47;;;8.80;99.90;;;;;;6241035;23;20372;-50
2022/09/22 00:52:12;;;;;;;11.40;10.20;;;8.80;99.90;;;;;;6241411;23;20814;-48
2022/09/22 00:54:38;;;;;;;11.03;9.83;;;8.70;99.90;;;;;;6240690;23;20173;-46
2022/09/22 00:57:13;;;;;;;11.83;9.93;;;8.70;99.90;;;;;;6241150;23;20353;-51
2022/09/22 00:59:40;;;;;;;11.23;10.00;;;8.70;99.90;;;;;;6241271;23;20364;-50
2022/09/22 01:02:05;;;;;;;10.63;9.63;;;8.70;99.90;;;;;;6240916;23;20376;-49
2022/09/22 01:04:31;;;;;;;10.50;9.10;;;8.60;99.90;;;;;;6238652;23;20388;-50
2022/09/22 01:06:58;;;;;;;10.13;9.03;;;8.60;99.90;;;;;;6240834;23;20137;-46
2022/09/22 01:09:25;;;;;;;11.63;9.47;;;8.60;99.90;;;;;;6241040;23;20201;-49
2022/09/22 01:11:51;;;;;;;11.57;10.00;;;8.60;99.90;;;;;;6241393;23;20364;-50
2022/09/22 01:14:32;;;;;;;11.00;9.90;;;8.60;99.90;;;;;;6240321;23;20438;-47
2022/09/22 01:17:08;;;;;;;11.37;10.27;;;8.50;99.90;;;;;;6241193;23;20352;-49
2022/09/22 01:20:08;;;;;;;9.87;8.87;;;8.50;99.90;;;;;;6240001;23;20364;-52
2022/09/22 01:22:54;;;;;;;9.60;8.60;;;8.50;99.90;;;;;;6241117;23;20479;-50
2022/09/22 01:25:42;;;;;;;10.10;9.10;;;8.50;99.90;;;;;;6240963;23;20364;-47
2022/09/22 01:28:14;;;;;;;11.30;9.00;;;8.50;99.90;;;;;;6240106;23;20361;-47
2022/09/22 01:31:03;;;;;;;10.27;9.27;;;8.50;99.90;;;;;;6241092;23;20372;-54
2022/09/22 01:33:34;;;;;;;11.60;9.03;;;8.50;99.90;;;;;;6240987;23;20407;-49
2022/09/22 01:36:25;;;;;;;10.50;9.30;;;8.40;99.90;;;;;;6241239;23;20435;-48
2022/09/22 01:39:13;;;;;;;11.00;9.90;;;8.40;99.90;;;;;;6240166;23;20426;-47
2022/09/22 01:42:04;;;;;;;11.40;9.90;;;8.40;99.90;;;;;;6240735;23;20380;-50
2022/09/22 01:44:44;;;;;;;11.90;10.70;;;8.30;99.90;;;;;;6240460;23;20363;-46
2022/09/22 01:47:19;;;;;;;11.67;10.10;;;8.30;99.90;;;;;;6240798;23;20356;-48
2022/09/22 01:49:52;;;;;;;11.40;10.00;;;8.20;99.90;;;;;;6241107;23;20733;-51
2022/09/22 01:52:24;;;;;;;12.80;11.50;;;8.20;99.90;;;;;;6213977;23;20387;-50
2022/09/22 01:54:56;;;;;;;10.47;9.47;;;8.10;99.90;;;;;;6240953;23;20436;-48
2022/09/22 01:57:45;;;;;;;11.93;10.60;;;8.10;99.90;;;;;;6240831;23;20368;-46
2022/09/22 02:00:11;;;;;;;10.90;9.67;;;8.10;99.90;;;;;;6241236;23;20360;-46
2022/09/22 02:03:00;;;;;;;10.60;9.50;;;8.00;99.90;;;;;;6240560;23;20383;-50
2022/09/22 02:05:57;;;;;;;12.53;10.43;;;8.00;99.90;;;;;;6240633;23;20655;-47
2022/09/22 02:08:36;;;;;;;11.10;9.90;;;8.00;99.90;;;;;;6241021;23;20460;-47
2022/09/22 02:11:10;;;;;;;11.23;9.50;;;8.00;99.90;;;;;;6239976;23;20366;-50
2022/09/22 02:13:36;;;;;;;11.60;10.33;;;8.00;99.90;;;;;;6240685;23;20394;-47
2022/09/22 02:16:03;;;;;;;11.13;10.03;;;8.00;99.90;;;;;;6213353;23;20469;-50
2022/09/22 02:18:48;;;;;;;11.00;9.80;;;8.00;99.90;;;;;;6240443;23;20800;-49
2022/09/22 02:21:14;;;;;;;10.13;9.03;;;7.90;99.90;;;;;;6240701;23;20363;-47
2022/09/22 02:23:41;;;;;;;10.50;9.50;;;7.80;99.90;;;;;;6240549;23;20368;-47
2022/09/22 02:26:08;;;;;;;10.50;9.40;;;7.80;99.90;;;;;;6240640;23;20458;-50
2022/09/22 02:28:37;;;;;;;10.77;9.67;;;7.70;99.90;;;;;;6242510;23;20383;-52
2022/09/22 02:31:06;;;;;;;10.63;9.63;;;7.60;99.90;;;;;;6242274;23;20392;-52
2022/09/22 02:33:34;;;;;;;14.63;9.97;;;7.60;99.90;;;;;;6242311;23;20392;-47
2022/09/22 02:36:11;;;;;;;10.63;9.00;;;7.60;99.90;;;;;;6242221;23;20384;-52
2022/09/22 02:39:02;;;;;;;11.13;9.70;;;7.60;99.90;;;;;;6241816;23;20441;-51
2022/09/22 02:42:06;;;;;;;10.90;8.80;;;7.50;99.90;;;;;;6242058;23;20383;-51
2022/09/22 02:44:44;;;;;;;10.63;9.53;;;7.50;99.90;;;;;;6241831;23;20362;-48
2022/09/22 02:47:17;;;;;;;11.33;9.27;;;7.40;99.90;;;;;;6242071;23;20383;-48
2022/09/22 02:49:44;;;;;;;10.20;9.20;;;7.40;99.90;;;;;;6242444;23;20395;-47
2022/09/22 02:52:12;;;;;;;11.57;10.23;;;7.40;99.90;;;;;;6242486;23;20415;-50
2022/09/22 02:54:38;;;;;;;10.27;9.27;;;7.30;99.90;;;;;;6242216;23;20415;-50
2022/09/22 02:57:04;;;;;;;12.20;10.07;;;7.30;99.90;;;;;;6242052;23;20366;-51
2022/09/22 02:59:30;;;;;;;11.83;10.47;;;7.30;99.90;;;;;;6241991;23;20154;-45
2022/09/22 03:01:55;;;;;;;10.20;9.20;;;7.20;99.90;;;;;;6241980;23;20367;-48
2022/09/22 03:04:21;;;;;;;10.10;8.80;;;7.20;99.90;;;;;;6214935;23;20172;-46
2022/09/22 03:06:47;;;;;;;10.53;9.43;;;7.20;99.90;;;;;;6241933;23;20156;-52
2022/09/22 03:09:15;;;;;;;11.37;10.17;;;7.10;99.90;;;;;;6241540;23;20145;-47
2022/09/22 03:11:41;;;;;;;10.77;9.63;;;7.10;99.90;;;;;;6241479;23;20184;-46
2022/09/22 03:14:07;;;;;;;11.03;9.87;;;7.10;99.90;;;;;;6241870;23;20410;-47
2022/09/22 03:16:34;;;;;;;11.00;9.90;;;7.10;99.90;;;;;;6240120;23;20425;-48
2022/09/22 03:19:00;;;;;;;11.23;9.87;;;7.00;99.90;;;;;;6242156;23;20148;-47
2022/09/22 03:21:25;;;;;;;11.37;10.10;;;7.00;99.90;;;;;;6241459;23;20366;-49
2022/09/22 03:23:51;;;;;;;15.30;11.37;;;7.00;99.90;;;;;;6242113;23;20391;-50
2022/09/22 03:26:16;;;;;;;11.73;10.13;;;7.00;99.90;;;;;;6241695;23;20160;-52
2022/09/22 03:28:45;;;;;;;11.63;9.60;;;7.00;99.90;;;;;;6242115;23;20173;-51
2022/09/22 03:31:11;;;;;;;10.70;9.60;;;6.90;99.90;;;;;;6241739;23;20158;-51
2022/09/22 03:33:37;;;;;;;13.20;10.77;;;6.90;99.90;;;;;;6241786;23;20375;-51
2022/09/22 03:36:04;;;;;;;11.63;10.43;;;6.90;99.90;;;;;;6242013;23;20480;-46
2022/09/22 03:38:30;;;;;;;13.93;11.83;;;6.80;99.90;;;;;;6240262;23;20496;-49
2022/09/22 03:40:57;;;;;;;13.37;11.97;;;6.80;99.90;;;;;;6242101;23;20352;-47
2022/09/22 03:43:23;;;;;;;11.60;10.40;;;6.80;99.90;;;;;;6239667;23;20669;-47
2022/09/22 03:45:59;;;;;;;12.60;11.30;;;6.80;99.90;;;;;;6242017;23;20374;-46
2022/09/22 03:48:27;;;;;;;12.50;10.87;;;6.80;99.90;;;;;;6241568;23;20369;-47
2022/09/22 03:50:53;;;;;;;14.00;10.63;;;6.70;99.90;;;;;;6241589;23;20378;-50
2022/09/22 03:53:19;;;;;;;12.23;10.77;;;6.70;99.90;;;;;;6214721;23;20379;-47
2022/09/22 03:55:44;;;;;;;12.70;11.00;;;6.70;99.90;;;;;;6241175;23;20865;-47
2022/09/22 03:58:10;;;;;;;12.53;11.30;;;6.60;99.90;;;;;;6241366;23;20159;-52
2022/09/22 04:00:35;;;;;;;12.20;10.90;;;6.60;99.90;;;;;;6241855;23;20442;-46
2022/09/22 04:03:01;;;;;;;16.53;11.43;;;6.60;99.90;;;;;;6241749;23;20606;-48
2022/09/22 04:05:27;;;;;;;13.90;11.67;;;6.60;99.90;;;;;;6241655;23;20163;-46
2022/09/22 04:07:52;;;;;;;16.73;12.80;;;6.60;99.90;;;;;;6214304;23;20162;-48
2022/09/22 04:10:18;;;;;;;20.33;11.60;;;6.60;99.90;;;;;;6241117;23;20820;-47
2022/09/22 04:12:44;;;;;;;16.93;11.37;;;6.50;99.90;;;;;;6241313;23;20170;-48
2022/09/22 04:15:10;;;;;;;58.77;14.00;;;6.50;99.90;;;;;;6240847;23;20740;-47
2022/09/22 04:17:35;;;;;;;46.50;13.13;;;6.60;99.90;;;;;;6232854;23;20170;-51
2022/09/22 04:20:06;;;;;;;31.27;12.70;;;6.60;99.90;;;;;;6232078;23;20175;-50
2022/09/22 04:22:32;;;;;;;50.07;13.53;;;6.60;99.90;;;;;;6232205;23;20136;-49
2022/09/22 04:24:58;;;;;;;53.80;13.80;;;6.70;99.90;;;;;;6231936;23;20433;-52
2022/09/22 04:27:23;;;;;;;60.83;13.10;;;6.60;99.90;;;;;;6232315;23;20378;-50
2022/09/22 04:29:49;;;;;;;62.43;11.87;;;6.70;99.90;;;;;;6232307;23;20147;-48
2022/09/22 04:32:16;;;;;;;25.17;12.10;;;6.60;99.90;;;;;;6232346;23;20208;-51
2022/09/22 04:34:42;;;;;;;41.10;11.60;;;6.60;99.90;;;;;;6232353;23;20171;-49
2022/09/22 04:37:08;;;;;;;29.20;10.80;;;6.70;99.90;;;;;;6231574;23;20385;-49
2022/09/22 04:39:34;;;;;;;35.77;11.50;;;6.70;99.90;;;;;;6240127;23;20203;-49
2022/09/22 04:42:00;;;;;;;45.27;11.00;;;6.70;99.90;;;;;;6214340;23;20405;-50
2022/09/22 04:44:26;;;;;;;27.80;10.67;;;6.70;99.90;;;;;;6241201;23;20375;-52
2022/09/22 04:46:51;;;;;;;26.23;10.63;;;6.70;99.90;;;;;;6241217;23;20206;-47
2022/09/22 04:49:17;;;;;;;31.50;9.37;;;6.70;99.90;;;;;;6241071;23;20472;-49
2022/09/22 04:51:43;;;;;;;28.67;10.23;;;6.70;99.90;;;;;;6241348;23;20144;-49
2022/09/22 04:54:09;;;;;;;40.47;11.10;;;6.70;99.90;;;;;;6240859;23;20419;-51
2022/09/22 04:56:34;;;;;;;40.10;11.03;;;6.60;99.90;;;;;;6241162;23;20667;-52
2022/09/22 04:59:00;;;;;;;75.43;12.60;;;6.60;99.90;;;;;;6240937;23;20239;-50
2022/09/22 05:01:26;;;;;;;63.23;13.27;;;6.50;99.90;;;;;;6240733;23;20164;-47
2022/09/22 05:03:52;;;;;;;44.77;12.17;;;6.60;99.90;;;;;;6241003;23;20461;-52
2022/09/22 05:06:18;;;;;;;54.80;11.60;;;6.50;99.90;;;;;;6241282;23;20142;-52
2022/09/22 05:08:44;;;;;;;81.23;12.70;;;6.50;99.90;;;;;;6240405;23;20836;-49
2022/09/22 05:11:09;;;;;;;52.50;12.50;;;6.50;99.90;;;;;;6241321;23;20159;-47
2022/09/22 05:13:37;;;;;;;71.73;14.03;;;6.50;99.90;;;;;;6241194;23;20151;-49
2022/09/22 05:16:04;;;;;;;64.32;12.80;;;6.50;99.90;;;;;;6213745;23;20155;-47
2022/09/22 05:18:31;;;;;;;53.07;12.00;;;6.50;99.90;;;;;;6239478;23;20159;-49
2022/09/22 05:20:56;;;;;;;60.20;14.40;;;6.60;99.90;;;;;;6241260;23;20379;-48
2022/09/22 05:23:22;;;;;;;60.03;13.93;;;6.60;99.90;;;;;;6240674;23;20374;-49
2022/09/22 05:25:47;;;;;;;71.77;13.57;;;6.70;99.90;;;;;;6240994;23;20371;-50
2022/09/22 05:28:13;;;;;;;63.73;13.60;;;6.70;99.90;;;;;;6240683;23;20153;-53
2022/09/22 05:30:39;;;;;;;81.53;13.77;;;6.80;99.90;;;;;;6239628;23;20140;-53
2022/09/22 05:33:04;;;;;;;60.03;13.60;;;6.80;99.90;;;;;;6239663;23;20150;-52
2022/09/22 05:35:30;;;;;;;50.87;11.83;;;6.80;99.90;;;;;;6240627;23;20231;-49
2022/09/22 05:37:55;;;;;;;55.17;12.60;;;6.80;99.90;;;;;;6239370;23;20780;-50
2022/09/22 05:40:23;;;;;;;21.00;10.63;;;6.90;99.90;;;;;;6240197;23;20162;-54
2022/09/22 05:42:50;;;;;;;31.60;11.30;;;6.90;99.90;;;;;;6239685;23;20153;-56
2022/09/22 05:45:17;;;;;;;40.77;11.23;;;6.90;99.90;;;;;;6240617;23;20410;-51
2022/09/22 05:47:42;;;;;;;25.40;10.80;;;6.90;99.90;;;;;;6241259;23;20375;-47
2022/09/22 05:50:10;;;;;;;27.87;10.20;;;6.90;99.90;;;;;;6240936;23;20374;-48
2022/09/22 05:52:35;;;;;;;16.87;10.23;;;6.80;99.90;;;;;;6241114;23;20151;-49
2022/09/22 05:55:01;;;;;;;18.03;11.73;;;6.90;99.90;;;;;;6239987;23;20441;-47
2022/09/22 05:57:27;;;;;;;12.07;10.53;;;7.00;99.90;;;;;;6240695;23;20149;-50
2022/09/22 05:59:53;;;;;;;13.13;10.93;;;7.00;99.90;;;;;;6240025;23;20226;-49
2022/09/22 06:02:19;;;;;;;11.90;10.50;;;7.00;99.90;;;;;;6213750;23;20293;-52
2022/09/22 06:04:45;;;;;;;13.33;10.97;;;7.10;99.90;;;;;;6241047;23;20369;-50
2022/09/22 06:07:10;;;;;;;19.73;11.30;;;7.10;99.90;;;;;;6241342;23;20382;-51
2022/09/22 06:09:36;;;;;;;13.33;11.23;;;7.10;99.90;;;;;;6241877;23;20183;-51
2022/09/22 06:12:02;;;;;;;13.30;10.90;;;7.20;99.90;;;;;;6242225;23;20988;-50
2022/09/22 06:14:27;;;;;;;11.83;10.47;;;7.20;99.90;;;;;;6242624;23;20208;-48
2022/09/22 06:16:54;;;;;;;20.60;10.40;;;7.20;99.90;;;;;;6242787;23;20151;-50
2022/09/22 06:19:22;;;;;;;15.30;10.50;;;7.30;99.90;;;;;;6243089;23;20149;-50
2022/09/22 06:21:48;;;;;;;15.60;10.33;;;7.30;99.90;;;;;;6242446;23;20679;-52
2022/09/22 06:24:15;;;;;;;12.07;10.27;;;7.30;99.90;;;;;;6242299;23;20375;-47
2022/09/22 06:26:41;;;;;;;12.67;10.20;;;7.40;99.90;;;;;;6242472;23;20733;-51
2022/09/22 06:29:08;;;;;;;14.50;10.83;;;7.50;99.90;;;;;;6242785;23;20374;-52
2022/09/22 06:31:33;;;;;;;12.50;10.10;;;7.60;99.90;;;;;;6242486;23;20137;-50
2022/09/22 06:33:59;;;;;;;13.23;11.83;;;7.70;99.90;;;;;;6242369;23;20469;-48
2022/09/22 06:36:31;;;;;;;15.47;12.80;;;7.80;99.90;;;;;;6243000;23;20233;-51
2022/09/22 06:38:57;;;;;;;16.43;12.43;;;7.80;99.90;;;;;;6242311;23;20196;-48
2022/09/22 06:41:31;;;;;;;15.87;14.17;;;8.00;99.90;;;;;;6242528;23;20376;-51
2022/09/22 06:43:56;;;;;;;16.60;12.80;;;8.10;99.90;;;;;;6242093;23;20384;-49
2022/09/22 06:46:25;;;;;;;17.30;13.17;;;8.20;99.90;;;;;;6242582;23;20790;-52
2022/09/22 06:48:56;;;;;;;22.50;13.03;;;8.30;99.90;;;;;;6242335;23;20235;-50
2022/09/22 06:51:27;;;;;;;31.73;13.70;;;8.50;99.90;;;;;;6242887;23;20385;-54
2022/09/22 06:53:55;;;;;;;36.23;14.40;;;8.60;99.90;;;;;;6214937;23;20482;-47
2022/09/22 06:56:23;;;;;;;16.73;11.70;;;8.70;99.90;;;;;;6240217;23;20925;-47
2022/09/22 06:58:50;;;;;;;14.40;11.70;;;8.80;99.90;;;;;;6241554;23;20455;-50
2022/09/22 07:01:17;;;;;;;16.60;11.17;;;8.90;99.90;;;;;;6214471;23;21121;-52
2022/09/22 07:03:45;;;;;;;14.80;11.80;;;8.90;99.90;;;;;;6242262;23;20364;-50
2022/09/22 07:06:15;;;;;;;12.10;10.80;;;9.00;99.90;;;;;;6242370;23;20357;-50
2022/09/22 07:08:41;;;;;;;13.33;10.40;;;9.10;99.90;;;;;;6242548;23;20356;-48
2022/09/22 07:11:08;;;;;;;12.20;10.97;;;9.20;99.90;;;;;;6241905;23;20371;-49
2022/09/22 07:13:37;;;;;;;11.50;10.30;;;9.20;99.90;;;;;;6241933;23;20144;-50
2022/09/22 07:16:08;;;;;;;11.80;10.67;;;9.20;99.90;;;;;;6241877;23;21071;-52
2022/09/22 07:18:45;;;;;;;12.00;10.90;;;9.30;99.90;;;;;;6241751;23;20361;-47
2022/09/22 07:21:19;;;;;;;11.17;10.07;;;9.30;99.90;;;;;;6241754;23;20368;-48
2022/09/22 07:23:45;;;;;;;11.93;10.73;;;9.30;99.90;;;;;;6241423;23;20359;-49
2022/09/22 07:26:13;;;;;;;20.10;17.67;;;9.20;99.90;;;;;;6241878;23;20705;-50
2022/09/22 07:28:39;;;;;;;13.43;12.10;;;9.10;99.90;;;;;;6241634;23;20388;-48
2022/09/22 07:31:07;;;;;;;13.77;12.37;;;9.20;99.90;;;;;;6241747;23;20380;-49
2022/09/22 07:33:37;;;;;;;11.53;10.30;;;9.20;99.90;;;;;;6241631;23;20372;-50
2022/09/22 07:36:07;;;;;;;13.53;12.20;;;9.30;99.90;;;;;;6240803;23;20435;-49
2022/09/22 07:38:38;;;;;;;13.37;12.07;;;9.40;99.90;;;;;;6240428;23;20431;-48
2022/09/22 07:41:07;;;;;;;13.20;11.87;;;9.50;99.90;;;;;;6241383;23;20368;-49
2022/09/22 07:43:34;;;;;;;15.93;14.33;;;9.60;99.90;;;;;;6241513;23;20675;-50
2022/09/22 07:46:00;;;;;;;17.20;15.50;;;9.80;99.90;;;;;;6241204;23;20569;-49
2022/09/22 07:48:36;;;;;;;20.03;16.20;;;9.90;99.90;;;;;;6240483;23;20421;-49
2022/09/22 07:51:21;;;;;;;17.80;16.00;;;10.00;99.90;;;;;;6240711;23;20694;-49
2022/09/22 07:53:48;;;;;;;15.77;14.07;;;10.20;99.90;;;;;;6241666;23;20368;-51
2022/09/22 07:56:16;;;;;;;15.60;14.00;;;10.30;99.90;;;;;;6241704;23;20357;-49
2022/09/22 07:58:52;;;;;;;14.33;12.93;;;10.50;99.90;;;;;;6240913;23;20353;-52
2022/09/22 08:01:19;;;;;;;19.63;14.83;;;10.60;99.90;;;;;;6238997;23;20357;-50
2022/09/22 08:03:46;;;;;;;16.50;14.40;;;10.80;99.90;;;;;;6240270;23;20391;-52
2022/09/22 08:06:13;;;;;;;15.50;13.93;;;11.00;99.90;;;;;;6241184;23;20377;-48
2022/09/22 08:08:41;;;;;;;17.37;15.67;;;11.20;99.90;;;;;;6240975;23;20418;-51
2022/09/22 08:11:11;;;;;;;14.57;13.17;;;11.50;99.90;;;;;;6241081;23;20391;-52
2022/09/22 08:13:38;;;;;;;18.40;16.70;;;11.70;88.00;;;;;;6241005;23;20359;-53
2022/09/22 08:16:04;;;;;;;24.43;21.83;;;12.00;56.70;;;;;;6240529;23;20400;-53
2022/09/22 08:18:31;;;;;;;14.60;13.20;;;12.40;32.10;;;;;;6240127;23;20494;-51
2022/09/22 08:20:57;;;;;;;13.60;12.30;;;12.90;1.00;;;;;;6240894;23;20721;-53
2022/09/22 08:23:22;;;;;;;12.23;11.03;;;13.40;1.00;;;;;;6240835;23;20436;-49
2022/09/22 08:25:49;;;;;;;12.00;10.90;;;14.00;1.00;;;;;;6240409;23;20380;-51
2022/09/22 08:28:15;;;;;;;10.50;9.60;;;14.60;1.00;;;;;;6240514;23;20164;-48
2022/09/22 08:30:45;;;;;;;10.53;9.53;;;15.40;99.90;;;;;;6240781;23;20462;-50
2022/09/22 08:33:10;;;;;;;11.10;10.07;;;16.20;99.90;;;;;;6240491;23;20163;-51
2022/09/22 08:35:36;;;;;;;9.67;8.97;;;16.90;1.00;;;;;;6240970;23;20408;-48
2022/09/22 08:38:02;;;;;;;10.40;9.60;;;17.50;99.90;;;;;;6240696;23;20669;-50
2022/09/22 08:40:29;;;;;;;10.50;9.60;;;18.10;1.00;;;;;;6240138;23;20376;-51
2022/09/22 08:42:56;;;;;;;10.20;9.30;;;18.30;1.00;;;;;;6241114;23;20153;-48
2022/09/22 08:45:37;;;;;;;10.10;9.30;;;18.70;1.00;;;;;;6240491;23;20709;-50
2022/09/22 08:54:07;;;;;;;10.77;9.87;;;20.70;1.00;;;;;;6240222;23;20465;-52
2022/09/22 08:56:43;;;;;;;10.13;9.40;;;21.30;1.00;;;;;;6214147;23;20392;-51
2022/09/22 08:59:37;;;;;;;10.00;9.23;;;22.00;1.00;;;;;;6240643;23;20560;-53
2022/09/22 09:02:31;;;;;;;10.03;9.33;;;22.10;1.00;;;;;;6239983;23;20368;-53
2022/09/22 09:05:26;;;;;;;9.30;8.50;;;22.10;1.00;;;;;;6230471;23;20368;-50
2022/09/22 09:07:57;;;;;;;8.50;7.80;;;22.20;1.00;;;;;;6223631;23;20414;-49
2022/09/22 09:10:51;;;;;;;9.20;8.60;;;22.00;1.00;;;;;;6240620;23;20360;-48
2022/09/22 09:13:36;;;;;;;9.53;8.83;;;21.70;1.00;;;;;;6240878;23;20372;-49
2022/09/22 09:16:28;;;;;;;8.37;7.77;;;21.50;1.00;;;;;;6240076;23;20473;-54
2022/09/22 09:19:03;;;;;;;9.67;8.97;;;20.90;1.00;;;;;;6240480;23;20439;-49
2022/09/22 09:21:33;;;;;;;10.07;9.27;;;20.50;1.00;;;;;;6213658;23;20462;-50
2022/09/22 09:24:04;;;;;;;9.27;8.57;;;20.40;1.00;;;;;;6240296;23;20356;-50
2022/09/22 09:26:33;;;;;;;8.60;7.97;;;20.50;1.00;;;;;;6240414;23;20356;-51
2022/09/22 09:29:03;;;;;;;9.00;8.23;;;20.80;1.00;;;;;;6240176;23;20376;-49
2022/09/22 09:31:42;;;;;;;8.33;7.73;;;20.80;1.00;;;;;;6240071;23;20383;-52
2022/09/22 09:34:13;;;;;;;8.43;7.73;;;21.20;1.00;;;;;;6240611;23;20435;-50
2022/09/22 09:36:41;;;;;;;8.40;7.80;;;21.10;1.00;;;;;;6240917;23;20360;-53
2022/09/22 09:39:26;;;;;;;8.27;7.67;;;22.10;1.00;;;;;;6242860;23;20427;-48
2022/09/22 09:41:53;;;;;;;8.27;7.67;;;23.00;99.90;;;;;;6243168;23;20364;-54
2022/09/22 09:44:24;;;;;;;7.03;6.53;;;23.70;99.90;;;;;;6242542;23;20696;-52
2022/09/22 09:47:04;;;;;;;6.40;5.97;;;23.90;99.90;;;;;;6243393;23;20364;-51
2022/09/22 09:49:30;;;;;;;6.40;6.00;;;25.00;99.90;;;;;;6241985;23;20877;-51
2022/09/22 09:51:59;;;;;;;6.70;6.30;;;25.80;99.90;;;;;;6242813;23;20443;-51
2022/09/22 09:54:26;;;;;;;5.87;5.47;;;25.90;99.90;;;;;;6242534;23;20433;-50
2022/09/22 09:57:07;;;;;;;5.60;5.20;;;26.00;99.90;;;;;;6241961;23;20447;-53
2022/09/22 10:02:27;;;;;;;6.07;5.67;;;26.60;99.90;;;;;;6242473;23;20531;-52
2022/09/22 10:04:55;;;;;;;5.37;5.07;;;26.70;99.90;;;;;;6242837;23;20368;-51
2022/09/22 10:07:27;;;;;;;7.47;6.93;;;26.90;99.90;;;;;;6242813;23;20396;-52
2022/09/22 10:09:55;;;;;;;6.50;6.10;;;27.60;99.90;;;;;;6242145;23;20861;-49
2022/09/22 10:12:27;;;;;;;6.30;5.90;;;27.80;99.90;;;;;;6242037;23;20376;-52
2022/09/22 10:14:56;;;;;;;6.17;5.77;;;27.60;99.90;;;;;;6242364;23;20756;-52
2022/09/22 10:17:39;;;;;;;6.40;6.00;;;28.40;99.90;;;;;;6242454;23;20376;-52
2022/09/22 10:20:30;;;;;;;6.37;5.97;;;28.30;99.90;;;;;;6242746;23;20376;-52
2022/09/22 10:23:18;;;;;;;5.50;5.20;;;28.50;99.90;;;;;;6242431;23;20921;-49
2022/09/22 10:25:44;;;;;;;5.03;4.73;;;29.40;99.90;;;;;;6242416;23;20364;-49
2022/09/22 10:28:17;;;;;;;4.87;4.50;;;29.30;99.90;;;;;;6242274;23;20372;-54
2022/09/22 10:30:56;;;;;;;5.90;5.50;;;29.10;99.90;;;;;;6242152;23;20622;-53
2022/09/22 10:33:22;;;;;;;4.50;4.30;;;28.60;99.90;;;;;;6215674;23;20398;-52
2022/09/22 10:36:08;;;;;;;5.57;5.10;;;28.40;99.90;;;;;;6242295;23;20416;-49
2022/09/22 10:38:39;;;;;;;5.03;4.70;;;26.90;99.90;;;;;;6215002;23;20605;-49
2022/09/22 10:41:10;;;;;;;4.60;4.30;;;25.60;99.90;;;;;;6239260;23;20375;-51
2022/09/22 10:43:47;;;;;;;4.30;4.10;;;24.50;99.90;;;;;;6242212;23;20791;-49
2022/09/22 10:46:34;;;;;;;4.50;4.10;;;23.50;99.90;;;;;;6241952;23;20368;-51
2022/09/22 10:49:11;;;;;;;4.60;4.40;;;22.80;99.90;;;;;;6242670;23;20356;-49
2022/09/22 10:51:59;;;;;;;4.90;4.60;;;22.10;99.90;;;;;;6241904;23;20364;-49
2022/09/22 10:54:35;;;;;;;4.87;4.57;;;21.60;99.90;;;;;;6241788;23;20470;-52
2022/09/22 10:57:08;;;;;;;5.63;5.33;;;20.70;99.90;;;;;;6241961;23;20443;-48
2022/09/22 10:59:54;;;;;;;4.97;4.57;;;20.20;99.90;;;;;;6242193;23;20364;-51
2022/09/22 11:02:47;;;;;;;4.60;4.20;;;20.30;99.90;;;;;;6240934;23;20443;-52
2022/09/22 11:14:34;;;;;;;4.97;4.67;;;19.30;1.00;;;;;;6242271;23;20419;-46
2022/09/22 11:17:30;;;;;;;4.80;4.40;;;19.30;1.00;;;;;;6241747;23;20368;-51
2022/09/22 11:20:21;;;;;;;4.90;4.60;;;19.10;1.00;;;;;;6240573;23;20412;-49
2022/09/22 11:23:26;;;;;;;4.90;4.60;;;19.10;1.00;;;;;;6241402;23;20360;-50
2022/09/22 11:26:03;;;;;;;4.37;4.17;;;19.00;1.00;;;;;;6207405;23;20399;-48
2022/09/22 11:28:57;;;;;;;4.43;4.13;;;19.00;1.00;;;;;;6208131;23;20365;-50
2022/09/22 11:31:35;;;;;;;8.90;8.20;;;19.20;1.00;;;;;;6232808;23;20434;-52
2022/09/22 11:34:38;;;;;;;4.30;4.10;;;19.70;1.00;;;;;;6241546;23;20364;-52
2022/09/22 11:37:36;;;;;;;4.57;4.33;;;20.10;99.90;;;;;;6240785;23;20437;-52
2022/09/22 11:40:15;;;;;;;4.60;4.30;;;19.90;99.90;;;;;;6178189;23;20984;-50
2022/09/22 11:43:09;;;;;;;4.30;4.00;;;19.70;99.90;;;;;;6210428;23;20455;-53
2022/09/22 11:46:06;;;;;;;4.07;3.77;;;19.60;99.90;;;;;;6210876;23;20370;-53
2022/09/22 11:48:51;;;;;;;4.23;3.93;;;19.60;99.90;;;;;;6210703;23;20377;-52
2022/09/22 11:51:26;;;;;;;3.77;3.57;;;19.70;99.90;;;;;;6211186;23;20456;-47
2022/09/22 11:54:07;;;;;;;3.87;3.67;;;20.10;99.90;;;;;;6210520;23;20376;-51
2022/09/22 11:56:43;;;;;;;3.90;3.70;;;20.60;99.90;;;;;;6210694;23;20819;-49
2022/09/22 11:59:49;;;;;;;3.90;3.70;;;21.00;99.90;;;;;;6210475;23;20504;-50
2022/09/22 12:02:27;;;;;;;4.20;4.00;;;22.40;99.90;;;;;;6210096;23;20388;-50
2022/09/22 12:05:01;;;;;;;3.33;3.13;;;23.50;99.90;;;;;;6210475;23;20369;-55
2022/09/22 12:07:35;;;;;;;3.20;3.10;;;24.70;99.90;;;;;;6211374;23;20448;-48
2022/09/22 12:10:12;;;;;;;3.53;3.33;;;25.90;99.90;;;;;;6210532;23;20368;-49
2022/09/22 12:12:43;;;;;;;3.97;3.67;;;26.10;99.90;;;;;;6210963;23;20415;-52
2022/09/22 12:15:18;;;;;;;3.67;3.47;;;26.90;99.90;;;;;;6210718;23;20416;-51
2022/09/22 12:17:55;;;;;;;3.10;2.90;;;27.20;99.90;;;;;;6210710;23;20349;-52
2022/09/22 12:20:28;;;;;;;3.37;3.17;;;28.30;99.90;;;;;;6210881;23;20360;-51
2022/09/22 12:23:03;;;;;;;3.70;3.50;;;29.00;99.90;;;;;;6210462;23;21115;-50
2022/09/22 12:25:55;;;;;;;4.60;3.57;;;29.90;99.90;;;;;;6210352;23;20719;-50
2022/09/22 12:28:26;;;;;;;3.23;3.03;;;29.80;99.90;;;;;;6210055;23;20369;-51
2022/09/22 12:31:03;;;;;;;3.70;3.50;;;29.80;99.90;;;;;;6211072;23;20452;-47
2022/09/22 12:33:29;;;;;;;2.80;2.70;;;30.20;99.90;;;;;;6209963;23;20410;-45
2022/09/22 12:35:55;;;;;;;3.40;3.20;;;30.50;99.90;;;;;;6210435;23;20500;-48
2022/09/22 12:38:22;;;;;;;3.60;3.40;;;30.30;99.90;;;;;;6221906;23;20431;-51
2022/09/22 12:40:50;;;;;;;3.30;3.10;;;30.10;99.90;;;;;;6240645;23;20403;-50
2022/09/22 12:43:20;;;;;;;4.00;3.80;;;29.80;99.90;;;;;;6241075;23;20361;-45
2022/09/22 12:45:46;;;;;;;3.87;3.57;;;29.10;99.90;;;;;;6240981;23;20718;-47
2022/09/22 12:48:21;;;;;;;3.53;3.40;;;29.40;99.90;;;;;;6240566;23;20447;-50
2022/09/22 12:50:46;;;;;;;4.10;3.90;;;30.10;99.90;;;;;;6240697;23;20449;-51
2022/09/22 12:53:21;;;;;;;3.40;3.30;;;30.50;99.90;;;;;;6240392;23;20480;-48
2022/09/22 12:55:52;;;;;;;3.50;3.30;;;30.90;99.90;;;;;;6239983;23;20243;-49
2022/09/22 12:58:17;;;;;;;3.53;3.33;;;30.40;99.90;;;;;;6240696;23;20685;-54
2022/09/22 13:00:43;;;;;;;3.97;3.57;;;29.20;99.90;;;;;;6241151;23;20368;-47
2022/09/22 13:03:24;;;;;;;3.60;3.47;;;27.80;99.90;;;;;;6239447;23;20455;-50
2022/09/22 13:05:56;;;;;;;4.00;3.80;;;26.60;99.90;;;;;;6241110;23;20140;-50
2022/09/22 13:08:26;;;;;;;3.60;3.40;;;25.60;99.90;;;;;;6239790;23;20379;-48
2022/09/22 13:10:55;;;;;;;4.30;4.00;;;24.70;99.90;;;;;;6240404;23;20364;-50
2022/09/22 13:13:29;;;;;;;3.90;3.70;;;23.50;99.90;;;;;;6240731;23;20498;-50
2022/09/22 13:16:01;;;;;;;4.57;4.33;;;22.60;99.90;;;;;;6240852;23;20446;-50
2022/09/22 13:18:34;;;;;;;4.60;4.40;;;21.90;99.90;;;;;;6240814;23;20364;-48
2022/09/22 13:21:02;;;;;;;4.67;4.47;;;21.30;99.90;;;;;;6240716;23;20399;-47
2022/09/22 13:23:28;;;;;;;4.70;4.40;;;20.90;99.90;;;;;;6240876;23;20373;-50